createdAt,value
2022-12-18T00:00:52.576Z,-3.9
2022-12-18T00:01:54.584Z,-4.1
2022-12-18T00:02:56.651Z,-4
2022-12-18T00:03:58.692Z,-4
2022-12-18T00:05:00.637Z,-3.9
2022-12-18T00:06:02.537Z,-3.9
2022-12-18T00:07:05.264Z,-3.9
2022-12-18T00:08:09.287Z,-3.9
2022-12-18T00:09:08.595Z,-3.9
2022-12-18T00:10:10.557Z,-4
2022-12-18T00:11:12.557Z,-4
2022-12-18T00:13:16.536Z,-3.8
2022-12-18T00:14:17.618Z,-3.7
2022-12-18T00:15:19.603Z,-3.7
2022-12-18T00:16:21.656Z,-3.6
2022-12-18T00:17:23.577Z,-3.8
2022-12-18T00:18:25.576Z,-3.9
2022-12-18T00:19:27.597Z,-4
2022-12-18T00:20:29.556Z,-4
2022-12-18T00:21:30.576Z,-3.7
2022-12-18T00:22:31.626Z,-3.5
2022-12-18T00:23:33.568Z,-3.5
2022-12-18T00:24:35.576Z,-3.3
2022-12-18T00:25:37.557Z,-3.3
2022-12-18T00:26:39.596Z,-3.3
2022-12-18T00:27:41.566Z,-3.4
2022-12-18T00:28:43.579Z,-3.4
2022-12-18T00:29:44.604Z,-3.4
2022-12-18T00:30:46.577Z,-3.4
2022-12-18T00:31:48.615Z,-3.4
2022-12-18T00:32:50.576Z,-3.3
2022-12-18T00:33:53.913Z,-3.4
2022-12-18T00:34:54.560Z,-3.3
2022-12-18T00:35:56.659Z,-3.3
2022-12-18T00:36:58.876Z,-3.4
2022-12-18T00:38:00.751Z,-3.4
2022-12-18T00:39:02.616Z,-3.4
2022-12-18T00:40:04.617Z,-3.4
2022-12-18T00:41:06.557Z,-3.3
2022-12-18T00:42:08.576Z,-3.6
2022-12-18T00:43:10.657Z,-3.7
2022-12-18T00:44:12.557Z,-3.6
2022-12-18T00:45:14.597Z,-3.2
2022-12-18T00:46:16.675Z,-3.2
2022-12-18T00:47:18.585Z,-3.1
2022-12-18T00:48:20.637Z,-3.2
2022-12-18T00:49:22.558Z,-3.5
2022-12-18T00:50:24.657Z,-3.2
2022-12-18T00:51:26.597Z,-3.2
2022-12-18T00:52:28.626Z,-3.1
2022-12-18T00:53:30.682Z,-3
2022-12-18T00:54:32.577Z,-2.9
2022-12-18T00:55:33.584Z,-2.8
2022-12-18T00:56:34.576Z,-2.8
2022-12-18T00:57:36.638Z,-2.8
2022-12-18T00:58:38.597Z,-2.7
2022-12-18T00:59:40.532Z,-2.6
2022-12-18T01:00:42.637Z,-2.7
2022-12-18T01:01:44.783Z,-2.7
2022-12-18T01:02:46.713Z,-2.7
2022-12-18T01:03:48.577Z,-2.8
2022-12-18T01:04:49.616Z,-2.8
2022-12-18T01:05:51.577Z,-2.7
2022-12-18T01:06:53.580Z,-2.7
2022-12-18T01:07:55.636Z,-2.6
2022-12-18T01:08:57.564Z,-2.9
2022-12-18T01:09:59.659Z,-2.6
2022-12-18T01:11:01.616Z,-2.7
2022-12-18T01:12:03.577Z,-2.6
2022-12-18T01:13:04.616Z,-2.5
2022-12-18T01:14:06.677Z,-2.4
2022-12-18T01:15:08.624Z,-2.5
2022-12-18T01:16:10.582Z,-2.5
2022-12-18T01:17:12.560Z,-2.6
2022-12-18T01:18:14.656Z,-2.8
2022-12-18T01:19:16.672Z,-2.6
2022-12-18T01:20:18.596Z,-2.7
2022-12-18T01:21:20.557Z,-2.4
2022-12-18T01:22:22.576Z,-2.5
2022-12-18T01:23:24.776Z,-2.4
2022-12-18T01:24:26.565Z,-2.6
2022-12-18T01:25:28.618Z,-3
2022-12-18T01:26:30.696Z,-3.4
2022-12-18T01:27:33.317Z,-3.7
2022-12-18T01:28:34.706Z,-3.9
2022-12-18T01:29:36.559Z,-3.8
2022-12-18T01:30:38.576Z,-3.6
2022-12-18T01:31:40.708Z,-3.4
2022-12-18T01:32:42.603Z,-3.3
2022-12-18T01:33:44.661Z,-3.2
2022-12-18T01:34:46.586Z,-3.2
2022-12-18T01:35:48.570Z,-3.5
2022-12-18T01:36:49.583Z,-3.5
2022-12-18T01:37:50.556Z,-3.3
2022-12-18T01:38:51.636Z,-3.1
2022-12-18T01:39:53.600Z,-3.1
2022-12-18T01:40:55.597Z,-3.1
2022-12-18T01:41:57.576Z,-3.1
2022-12-18T01:42:59.637Z,-3.1
2022-12-18T01:44:01.642Z,-3.1
2022-12-18T01:45:03.677Z,-3
2022-12-18T01:46:05.622Z,-2.9
2022-12-18T01:47:07.617Z,-3
2022-12-18T01:48:09.836Z,-3.1
2022-12-18T01:49:11.656Z,-3
2022-12-18T01:50:13.576Z,-3
2022-12-18T01:51:14.876Z,-3
2022-12-18T01:52:17.797Z,-2.8
2022-12-18T01:53:19.604Z,-2.7
2022-12-18T01:54:21.596Z,-2.9
2022-12-18T01:55:23.596Z,-3
2022-12-18T01:56:25.596Z,-3
2022-12-18T01:57:27.620Z,-2.9
2022-12-18T01:58:28.584Z,-2.7
2022-12-18T01:59:29.618Z,-2.7
2022-12-18T02:00:31.637Z,-2.6
2022-12-18T02:01:33.825Z,-2.7
2022-12-18T02:02:35.733Z,-2.6
2022-12-18T02:07:00.557Z,-2.4
2022-12-18T02:08:02.595Z,-2.3
2022-12-18T02:09:04.615Z,-2.3
2022-12-18T02:10:06.616Z,-2.5
2022-12-18T02:11:08.617Z,-2.4
2022-12-18T02:12:10.657Z,-2.5
2022-12-18T02:13:12.675Z,-2.5
2022-12-18T02:14:14.599Z,-2.5
2022-12-18T02:15:16.635Z,-2.5
2022-12-18T02:16:17.687Z,-2.6
2022-12-18T02:17:19.703Z,-2.6
2022-12-18T02:18:21.606Z,-2.4
2022-12-18T02:19:23.595Z,-2.4
2022-12-18T02:20:25.637Z,-2.2
2022-12-18T02:21:27.655Z,-2.4
2022-12-18T02:22:29.656Z,-2.5
2022-12-18T02:23:31.776Z,-2.5
2022-12-18T02:24:33.620Z,-2.4
2022-12-18T02:25:34.661Z,-2.3
2022-12-18T02:26:36.615Z,-2.3
2022-12-18T02:27:38.615Z,-2.7
2022-12-18T02:28:40.938Z,-2.8
2022-12-18T02:29:42.676Z,-2.8
2022-12-18T02:30:44.717Z,-2.7
2022-12-18T02:31:46.635Z,-2.7
2022-12-18T02:32:47.656Z,-2.5
2022-12-18T02:33:49.616Z,-2.4
2022-12-18T02:34:51.936Z,-2.5
2022-12-18T02:35:53.761Z,-2.4
2022-12-18T02:36:55.634Z,-2.4
2022-12-18T02:37:57.636Z,-2.4
2022-12-18T02:38:59.917Z,-2.3
2022-12-18T02:40:01.795Z,-2.5
2022-12-18T02:41:04.156Z,-2.5
2022-12-18T02:42:05.795Z,-2.5
2022-12-18T02:43:07.895Z,-2.5
2022-12-18T02:44:09.757Z,-2.4
2022-12-18T02:45:11.600Z,-2.5
2022-12-18T02:46:13.639Z,-2.5
2022-12-18T02:47:15.649Z,-2.6
2022-12-18T02:48:17.636Z,-2.5
2022-12-18T02:49:19.657Z,-2.4
2022-12-18T02:50:20.810Z,-2.4
2022-12-18T02:51:23.155Z,-2.3
2022-12-18T02:52:25.056Z,-2.1
2022-12-18T02:53:26.596Z,-2.3
2022-12-18T02:54:28.622Z,-2.2
2022-12-18T02:55:30.635Z,-2.1
2022-12-18T02:56:32.639Z,-2.1
2022-12-18T02:57:33.771Z,-2.2
2022-12-18T02:58:35.662Z,-2.3
2022-12-18T02:59:37.774Z,-2.2
2022-12-18T03:00:39.635Z,-2.4
2022-12-18T03:01:42.029Z,-2.5
2022-12-18T03:02:43.753Z,-2.4
2022-12-18T03:03:45.695Z,-2.6
2022-12-18T03:04:47.616Z,-2.8
2022-12-18T03:05:48.736Z,-2.6
2022-12-18T03:06:50.654Z,-2.5
2022-12-18T03:07:52.656Z,-2.4
2022-12-18T03:08:54.675Z,-2.3
2022-12-18T03:09:56.592Z,-2.5
2022-12-18T03:10:58.616Z,-2.5
2022-12-18T03:12:00.717Z,-2.5
2022-12-18T03:13:02.775Z,-2.3
2022-12-18T03:14:04.675Z,-2.4
2022-12-18T03:15:06.796Z,-2.3
2022-12-18T03:16:08.675Z,-2.4
2022-12-18T03:17:11.216Z,-2.5
2022-12-18T03:18:12.694Z,-2.5
2022-12-18T03:19:14.715Z,-2.5
2022-12-18T03:20:16.655Z,-2.6
2022-12-18T03:21:18.640Z,-2.6
2022-12-18T03:22:20.635Z,-2.5
2022-12-18T03:23:26.059Z,-2.5
2022-12-18T03:24:24.837Z,-2.4
2022-12-18T03:25:26.615Z,-2.4
2022-12-18T03:26:28.676Z,-2.5
2022-12-18T03:27:30.656Z,-2.4
2022-12-18T03:28:32.684Z,-2.3
2022-12-18T03:29:34.619Z,-2.6
2022-12-18T03:30:35.888Z,-2.6
2022-12-18T03:31:37.644Z,-2.4
2022-12-18T03:32:39.695Z,-2.4
2022-12-18T03:33:41.948Z,-2.6
2022-12-18T03:34:43.635Z,-2.9
2022-12-18T03:35:45.656Z,-3
2022-12-18T03:36:46.644Z,-2.9
2022-12-18T03:37:48.036Z,-2.8
2022-12-18T03:38:49.638Z,-2.6
2022-12-18T03:39:50.616Z,-2.9
2022-12-18T03:40:51.636Z,-3
2022-12-18T03:41:53.675Z,-2.9
2022-12-18T03:42:55.675Z,-2.8
2022-12-18T03:43:57.676Z,-2.7
2022-12-18T03:44:59.687Z,-2.6
2022-12-18T03:46:01.984Z,-2.6
2022-12-18T03:47:03.697Z,-2.6
2022-12-18T03:48:05.692Z,-2.7
2022-12-18T03:49:07.615Z,-2.7
2022-12-18T03:50:12.738Z,-2.7
2022-12-18T03:51:12.646Z,-2.9
2022-12-18T03:52:14.724Z,-2.8
2022-12-18T03:53:16.960Z,-2.9
2022-12-18T03:54:18.675Z,-2.8
2022-12-18T03:55:20.635Z,-2.8
2022-12-18T03:56:22.637Z,-2.8
2022-12-18T03:57:24.877Z,-2.7
2022-12-18T03:58:26.651Z,-2.8
2022-12-18T03:59:28.675Z,-2.9
2022-12-18T04:00:30.856Z,-2.6
2022-12-18T04:01:33.051Z,-2.5
2022-12-18T04:02:34.838Z,-2.6
2022-12-18T04:03:36.692Z,-2.5
2022-12-18T04:04:38.665Z,-2.4
2022-12-18T04:05:45.696Z,-2.3
2022-12-18T04:06:47.776Z,-2.3
2022-12-18T04:07:49.636Z,-2.4
2022-12-18T04:08:50.696Z,-2.4
2022-12-18T04:09:52.655Z,-2.3
2022-12-18T04:10:54.663Z,-2.4
2022-12-18T04:11:56.635Z,-2.3
2022-12-18T04:12:58.661Z,-2.2
2022-12-18T04:14:02.710Z,-2.2
2022-12-18T04:15:02.708Z,-2.2
2022-12-18T04:16:05.141Z,-2.6
2022-12-18T04:17:06.776Z,-2.9
2022-12-18T04:18:08.695Z,-2.9
2022-12-18T04:19:10.676Z,-3.1
2022-12-18T04:20:12.696Z,-3
2022-12-18T04:21:14.636Z,-3
2022-12-18T04:22:15.678Z,-3.1
2022-12-18T04:23:17.675Z,-3.1
2022-12-18T04:24:19.717Z,-3.1
2022-12-18T04:25:21.715Z,-3.2
2022-12-18T04:26:23.595Z,-3.1
2022-12-18T04:27:25.697Z,-3.4
2022-12-18T04:28:27.717Z,-3.2
2022-12-18T04:29:29.803Z,-3.2
2022-12-18T04:30:31.936Z,-3.1
2022-12-18T04:31:33.800Z,-3.1
2022-12-18T04:32:35.832Z,-3.4
2022-12-18T04:33:38.005Z,-3.3
2022-12-18T04:34:39.655Z,-3.3
2022-12-18T04:35:41.716Z,-3.4
2022-12-18T04:36:44.397Z,-3.4
2022-12-18T04:37:45.675Z,-3.4
2022-12-18T04:38:47.738Z,-3.3
2022-12-18T04:39:49.677Z,-3.1
2022-12-18T04:40:50.696Z,-2.9
2022-12-18T04:41:52.675Z,-3
2022-12-18T04:42:54.699Z,-2.9
2022-12-18T04:43:56.715Z,-2.8
2022-12-18T04:44:58.835Z,-2.7
2022-12-18T04:46:00.804Z,-2.6
2022-12-18T04:47:02.735Z,-2.6
2022-12-18T04:48:05.100Z,-2.6
2022-12-18T04:49:06.642Z,-2.6
2022-12-18T04:50:08.762Z,-2.7
2022-12-18T04:51:10.816Z,-2.9
2022-12-18T04:52:13.023Z,-2.9
2022-12-18T04:53:14.716Z,-2.8
2022-12-18T04:54:16.655Z,-2.8
2022-12-18T04:55:18.715Z,-2.6
2022-12-18T04:56:20.655Z,-2.6
2022-12-18T04:57:21.656Z,-2.7
2022-12-18T04:58:23.695Z,-3.1
2022-12-18T04:59:25.728Z,-3.4
2022-12-18T05:00:27.695Z,-3.2
2022-12-18T05:01:34.457Z,-3.2
2022-12-18T05:02:31.758Z,-3.5
2022-12-18T05:03:33.856Z,-3.3
2022-12-18T05:04:35.663Z,-3.1
2022-12-18T05:05:37.655Z,-3.2
2022-12-18T05:06:39.659Z,-3.2
2022-12-18T05:07:41.699Z,-3.2
2022-12-18T05:08:43.656Z,-3.2
2022-12-18T05:09:45.850Z,-3.1
2022-12-18T05:10:47.696Z,-3.1
2022-12-18T05:11:49.677Z,-3
2022-12-18T05:12:50.743Z,-3
2022-12-18T05:13:52.717Z,-2.9
2022-12-18T05:14:54.719Z,-2.9
2022-12-18T05:15:56.691Z,-2.7
2022-12-18T05:17:00.975Z,-2.6
2022-12-18T05:18:00.697Z,-2.7
2022-12-18T05:19:02.786Z,-2.6
2022-12-18T05:20:04.965Z,-2.6
2022-12-18T05:21:06.704Z,-2.6
2022-12-18T05:22:08.674Z,-2.6
2022-12-18T05:23:10.683Z,-2.7
2022-12-18T05:24:12.695Z,-2.7
2022-12-18T05:25:14.777Z,-2.7
2022-12-18T05:26:16.664Z,-2.7
2022-12-18T05:27:18.696Z,-2.7
2022-12-18T05:28:20.679Z,-2.8
2022-12-18T05:29:21.715Z,-2.8
2022-12-18T05:30:23.716Z,-2.8
2022-12-18T05:31:25.737Z,-2.7
2022-12-18T05:32:27.695Z,-2.8
2022-12-18T05:33:29.742Z,-2.8
2022-12-18T05:34:31.758Z,-2.7
2022-12-18T05:35:33.716Z,-2.9
2022-12-18T05:36:35.678Z,-2.7
2022-12-18T05:37:41.159Z,-2.6
2022-12-18T05:38:37.705Z,-2.9
2022-12-18T05:39:38.663Z,-3
2022-12-18T05:40:39.695Z,-3.1
2022-12-18T05:41:40.679Z,-3.2
2022-12-18T05:42:42.716Z,-3.3
2022-12-18T05:43:45.336Z,-3.2
2022-12-18T05:44:46.695Z,-3.2
2022-12-18T05:45:47.722Z,-3.3
2022-12-18T05:46:49.842Z,-3.4
2022-12-18T05:47:51.699Z,-3.6
2022-12-18T05:48:53.675Z,-3.6
2022-12-18T05:49:56.071Z,-3.9
2022-12-18T05:50:57.726Z,-4
2022-12-18T05:51:59.676Z,-4
2022-12-18T05:53:01.698Z,-4.1
2022-12-18T05:54:02.676Z,-4.3
2022-12-18T05:55:03.765Z,-4.3
2022-12-18T05:56:05.757Z,-4.5
2022-12-18T05:57:07.697Z,-4.5
2022-12-18T05:58:09.683Z,-4.2
2022-12-18T05:59:11.656Z,-4.2
2022-12-18T06:00:13.757Z,-4.1
2022-12-18T06:01:15.734Z,-4
2022-12-18T06:02:17.829Z,-4
2022-12-18T06:03:19.827Z,-3.8
2022-12-18T06:04:20.715Z,-3.7
2022-12-18T06:05:22.807Z,-3.6
2022-12-18T06:06:24.955Z,-3.5
2022-12-18T06:07:26.715Z,-3.3
2022-12-18T06:08:28.735Z,-3.4
2022-12-18T06:09:30.735Z,-3.4
2022-12-18T06:10:32.724Z,-3.3
2022-12-18T06:11:35.376Z,-3.4
2022-12-18T06:12:36.920Z,-3.3
2022-12-18T06:13:39.214Z,-3.2
2022-12-18T06:14:40.755Z,-3.2
2022-12-18T06:15:42.816Z,-3.2
2022-12-18T06:16:45.816Z,-3
2022-12-18T06:17:48.457Z,-3.1
2022-12-18T06:18:49.717Z,-3.1
2022-12-18T06:19:51.683Z,-3
2022-12-18T06:20:53.862Z,-3
2022-12-18T06:21:55.897Z,-3.1
2022-12-18T06:22:57.695Z,-3.1
2022-12-18T06:23:59.716Z,-3.2
2022-12-18T06:25:00.695Z,-3.2
2022-12-18T06:26:01.996Z,-3.4
2022-12-18T06:27:04.395Z,-3.5
2022-12-18T06:28:05.743Z,-3.5
2022-12-18T06:29:07.698Z,-3.4
2022-12-18T06:30:09.760Z,-3.4
2022-12-18T06:31:12.174Z,-3.4
2022-12-18T06:32:13.700Z,-3.4
2022-12-18T06:33:15.669Z,-3.4
2022-12-18T06:34:18.844Z,-3.4
2022-12-18T06:35:20.695Z,-3.5
2022-12-18T06:36:23.371Z,-3.4
2022-12-18T06:37:25.636Z,-3.5
2022-12-18T06:38:26.736Z,-3.8
2022-12-18T06:39:28.775Z,-4
2022-12-18T06:40:30.712Z,-4
2022-12-18T06:41:33.317Z,-3.9
2022-12-18T06:42:34.996Z,-4.1
2022-12-18T06:43:36.919Z,-4.1
2022-12-18T06:44:38.695Z,-4.2
2022-12-18T06:45:40.807Z,-4.2
2022-12-18T06:46:42.775Z,-4.1
2022-12-18T06:47:44.717Z,-4.1
2022-12-18T06:48:46.555Z,-4.2
2022-12-18T06:49:47.736Z,-4.2
2022-12-18T06:50:49.665Z,-4
2022-12-18T06:51:51.973Z,-4.1
2022-12-18T06:52:53.736Z,-4.1
2022-12-18T06:53:55.718Z,-4.1
2022-12-18T06:54:58.858Z,-3.9
2022-12-18T06:56:03.904Z,-4
2022-12-18T06:57:02.981Z,-3.9
2022-12-18T06:58:04.715Z,-3.9
2022-12-18T06:59:06.838Z,-4
2022-12-18T07:00:09.055Z,-3.9
2022-12-18T07:01:11.306Z,-4
2022-12-18T07:02:13.969Z,-4
2022-12-18T07:03:15.781Z,-4
2022-12-18T07:04:17.679Z,-3.9
2022-12-18T07:05:19.722Z,-3.9
2022-12-18T07:06:21.835Z,-3.8
2022-12-18T07:07:23.995Z,-3.8
2022-12-18T07:08:25.676Z,-3.8
2022-12-18T07:09:30.597Z,-3.9
2022-12-18T07:10:32.295Z,-3.9
2022-12-18T07:11:33.809Z,-3.8
2022-12-18T07:12:35.756Z,-3.9
2022-12-18T07:13:38.504Z,-4.1
2022-12-18T07:14:40.439Z,-4.2
2022-12-18T07:15:41.805Z,-4.3
2022-12-18T07:16:43.823Z,-4.4
2022-12-18T07:17:45.756Z,-4.5
2022-12-18T07:18:47.799Z,-4.4
2022-12-18T07:19:50.016Z,-4.4
2022-12-18T07:20:51.775Z,-4.4
2022-12-18T07:21:53.744Z,-4.4
2022-12-18T07:22:56.416Z,-4.2
2022-12-18T07:23:57.776Z,-4.1
2022-12-18T07:24:59.997Z,-4.3
2022-12-18T07:26:01.758Z,-4.2
2022-12-18T07:27:03.735Z,-4.3
2022-12-18T07:28:05.758Z,-4.3
2022-12-18T07:29:07.835Z,-4.3
2022-12-18T07:30:09.736Z,-4.2
2022-12-18T07:31:11.788Z,-4.1
2022-12-18T07:32:13.877Z,-4.1
2022-12-18T07:33:16.056Z,-4
2022-12-18T07:34:17.776Z,-4
2022-12-18T07:35:24.692Z,-3.9
2022-12-18T07:36:21.752Z,-4
2022-12-18T07:37:23.740Z,-3.8
2022-12-18T07:38:25.741Z,-3.9
2022-12-18T07:39:26.672Z,-4
2022-12-18T07:40:27.781Z,-3.9
2022-12-18T07:41:29.900Z,-3.9
2022-12-18T07:42:31.749Z,-4
2022-12-18T07:43:33.736Z,-4
2022-12-18T07:44:35.769Z,-4.1
2022-12-18T07:45:37.903Z,-3.9
2022-12-18T07:46:39.757Z,-3.9
2022-12-18T07:47:41.028Z,-3.9
2022-12-18T07:48:42.977Z,-4.1
2022-12-18T07:49:44.978Z,-3.9
2022-12-18T07:50:47.018Z,-3.9
2022-12-18T07:51:48.714Z,-4
2022-12-18T07:52:51.308Z,-4
2022-12-18T07:53:53.813Z,-3.9
2022-12-18T07:54:54.848Z,-3.9
2022-12-18T07:56:25.261Z,-3.9
2022-12-18T07:56:58.726Z,-3.7
2022-12-18T07:58:01.224Z,-3.8
2022-12-18T07:59:02.435Z,-3.8
2022-12-18T08:00:03.899Z,-3.8
2022-12-18T08:01:06.789Z,-3.8
2022-12-18T08:02:08.926Z,-3.9
2022-12-18T08:03:11.139Z,-4
2022-12-18T08:04:12.847Z,-4.1
2022-12-18T08:05:15.357Z,-4
2022-12-18T08:06:17.496Z,-3.9
2022-12-18T08:07:18.709Z,-3.7
2022-12-18T08:08:21.256Z,-3.7
2022-12-18T08:09:23.138Z,-3.9
2022-12-18T08:10:25.195Z,-3.7
2022-12-18T08:11:26.816Z,-3.9
2022-12-18T08:12:28.925Z,-4
2022-12-18T08:13:31.422Z,-4.1
2022-12-18T08:14:32.778Z,-4.3
2022-12-18T08:15:34.723Z,-4.4
2022-12-18T08:16:36.390Z,-4.4
2022-12-18T08:17:37.817Z,-4.5
2022-12-18T08:18:40.904Z,-4.4
2022-12-18T08:19:42.805Z,-4.4
2022-12-18T08:20:44.744Z,-4.5
2022-12-18T08:21:46.718Z,-4.6
2022-12-18T08:22:48.765Z,-4.4
2022-12-18T08:23:51.572Z,-4.4
2022-12-18T08:24:52.867Z,-4.3
2022-12-18T08:25:54.796Z,-4.3
2022-12-18T08:27:21.102Z,-4.4
2022-12-18T08:27:59.117Z,-4.4
2022-12-18T08:29:01.092Z,-4.4
2022-12-18T08:30:02.798Z,-4.5
2022-12-18T08:31:04.825Z,-4.6
2022-12-18T08:32:06.941Z,-4.5
2022-12-18T08:33:08.776Z,-4.6
2022-12-18T08:34:10.761Z,-4.7
2022-12-18T08:35:12.824Z,-4.7
2022-12-18T08:36:14.756Z,-4.8
2022-12-18T08:37:16.776Z,-4.7
2022-12-18T08:38:18.759Z,-4.5
2022-12-18T08:39:20.819Z,-4.5
2022-12-18T08:40:22.903Z,-4.7
2022-12-18T08:41:25.397Z,-4.7
2022-12-18T08:42:27.136Z,-4.6
2022-12-18T08:43:29.337Z,-4.6
2022-12-18T08:44:30.776Z,-4.5
2022-12-18T08:45:32.816Z,-4.4
2022-12-18T08:46:34.839Z,-4.6
2022-12-18T08:47:37.105Z,-4.5
2022-12-18T08:48:40.678Z,-4.4
2022-12-18T08:49:41.909Z,-4.2
2022-12-18T08:50:43.747Z,-4.2
2022-12-18T08:51:45.826Z,-4.1
2022-12-18T08:52:47.838Z,-4
2022-12-18T08:53:49.815Z,-3.9
2022-12-18T08:54:51.789Z,-3.8
2022-12-18T08:55:59.967Z,-3.9
2022-12-18T08:56:55.847Z,-3.9
2022-12-18T08:57:57.777Z,-4
2022-12-18T08:58:59.757Z,-3.9
2022-12-18T09:00:01.832Z,-3.9
2022-12-18T09:01:03.927Z,-4
2022-12-18T09:02:07.404Z,-3.7
2022-12-18T09:03:09.342Z,-3.6
2022-12-18T09:04:10.841Z,-3.7
2022-12-18T09:05:13.136Z,-3.9
2022-12-18T09:06:14.716Z,-3.8
2022-12-18T09:07:16.816Z,-3.6
2022-12-18T09:08:18.816Z,-3.5
2022-12-18T09:09:20.764Z,-3.5
2022-12-18T09:10:22.837Z,-3.5
2022-12-18T09:11:25.258Z,-3.8
2022-12-18T09:12:27.248Z,-3.9
2022-12-18T09:13:28.738Z,-3.8
2022-12-18T09:14:30.816Z,-3.9
2022-12-18T09:15:32.797Z,-3.9
2022-12-18T09:16:34.802Z,-3.8
2022-12-18T09:17:36.096Z,-3.8
2022-12-18T09:18:37.932Z,-3.7
2022-12-18T09:19:39.811Z,-3.8
2022-12-18T09:20:41.720Z,-3.7
2022-12-18T09:21:47.949Z,-3.9
2022-12-18T09:22:45.857Z,-3.9
2022-12-18T09:23:47.755Z,-4
2022-12-18T09:24:50.625Z,-3.9
2022-12-18T09:25:51.761Z,-3.8
2022-12-18T09:26:57.527Z,-3.8
2022-12-18T09:27:56.843Z,-3.9
2022-12-18T09:28:58.776Z,-3.7
2022-12-18T09:30:00.822Z,-3.7
2022-12-18T09:31:02.883Z,-4
2022-12-18T09:32:04.766Z,-3.9
2022-12-18T09:33:06.788Z,-3.6
2022-12-18T09:34:08.761Z,-3.5
2022-12-18T09:35:11.276Z,-3.6
2022-12-18T09:36:12.801Z,-3.7
2022-12-18T09:37:14.996Z,-3.9
2022-12-18T09:38:17.138Z,-3.9
2022-12-18T09:39:18.798Z,-3.7
2022-12-18T09:40:21.522Z,-3.8
2022-12-18T09:41:23.814Z,-4.1
2022-12-18T09:42:25.716Z,-4.2
2022-12-18T09:43:28.528Z,-4.4
2022-12-18T09:44:30.121Z,-4.4
2022-12-18T09:45:32.196Z,-4.4
2022-12-18T09:46:33.827Z,-4.2
2022-12-18T09:47:35.796Z,-4
2022-12-18T09:48:39.104Z,-4
2022-12-18T09:49:40.817Z,-3.9
2022-12-18T09:50:42.790Z,-3.8
2022-12-18T09:51:44.856Z,-3.7
2022-12-18T09:52:46.799Z,-3.6
2022-12-18T09:53:49.756Z,-3.5
2022-12-18T09:54:51.839Z,-3.4
2022-12-18T09:55:53.836Z,-3.6
2022-12-18T09:56:55.845Z,-3.8
2022-12-18T09:57:58.001Z,-3.8
2022-12-18T09:58:59.973Z,-4.1
2022-12-18T10:00:01.943Z,-4.3
2022-12-18T10:01:04.520Z,-4.3
2022-12-18T10:02:05.881Z,-4.2
2022-12-18T10:03:07.865Z,-4.4
2022-12-18T10:04:09.849Z,-4.5
2022-12-18T10:05:11.979Z,-4.5
2022-12-18T10:06:14.215Z,-4.4
2022-12-18T10:07:15.915Z,-4.3
2022-12-18T10:08:17.804Z,-4
2022-12-18T10:09:20.701Z,-4
2022-12-18T10:10:22.864Z,-3.7
2022-12-18T10:11:24.755Z,-3.6
2022-12-18T10:12:26.786Z,-3.7
2022-12-18T10:13:31.539Z,-3.8
2022-12-18T10:14:32.897Z,-3.7
2022-12-18T10:15:35.606Z,-4
2022-12-18T10:16:36.815Z,-4.1
2022-12-18T10:17:38.797Z,-4.2
2022-12-18T10:18:41.177Z,-4.2
2022-12-18T10:19:42.840Z,-4.1
2022-12-18T10:20:44.830Z,-4.1
2022-12-18T10:21:45.805Z,-4.1
2022-12-18T10:22:47.955Z,-4.2
2022-12-18T10:23:50.219Z,-4.2
2022-12-18T10:24:52.800Z,-4.1
2022-12-18T10:25:53.763Z,-4
2022-12-18T10:26:54.779Z,-4
2022-12-18T10:27:56.815Z,-4
2022-12-18T10:29:03.780Z,-3.9
2022-12-18T10:30:00.931Z,-4
2022-12-18T10:31:02.918Z,-4
2022-12-18T10:32:04.861Z,-4.1
2022-12-18T10:33:06.830Z,-4.2
2022-12-18T10:34:09.802Z,-4.2
2022-12-18T10:35:11.798Z,-4.2
2022-12-18T10:36:14.007Z,-4.3
2022-12-18T10:37:15.893Z,-4.4
2022-12-18T10:38:17.836Z,-4.3
2022-12-18T10:39:20.018Z,-4.3
2022-12-18T10:40:22.476Z,-4.4
2022-12-18T10:41:23.835Z,-4.5
2022-12-18T10:42:26.256Z,-4.4
2022-12-18T10:43:28.372Z,-4.4
2022-12-18T10:44:31.220Z,-4.4
2022-12-18T10:45:39.432Z,-4.3
2022-12-18T10:46:38.030Z,-4.3
2022-12-18T10:47:40.883Z,-4.3
2022-12-18T10:48:43.162Z,-4.1
2022-12-18T10:49:44.835Z,-4
2022-12-18T10:51:10.150Z,-3.9
2022-12-18T10:51:48.854Z,-3.8
2022-12-18T10:52:51.677Z,-3.7
2022-12-18T10:53:53.944Z,-3.9
2022-12-18T10:54:56.287Z,-3.8
2022-12-18T10:55:57.764Z,-3.8
2022-12-18T10:56:59.855Z,-3.9
2022-12-18T10:58:01.859Z,-3.9
2022-12-18T10:59:03.878Z,-4.1
2022-12-18T11:00:05.876Z,-4.3
2022-12-18T11:01:07.916Z,-4.3
2022-12-18T11:02:11.259Z,-4.3
2022-12-18T11:03:12.882Z,-4.2
2022-12-18T11:04:14.857Z,-4.3
2022-12-18T11:05:16.839Z,-4.3
2022-12-18T11:06:19.104Z,-4.3
2022-12-18T11:07:21.483Z,-4.2
2022-12-18T11:08:22.917Z,-4.2
2022-12-18T11:09:24.899Z,-4.1
2022-12-18T11:10:26.801Z,-4
2022-12-18T11:11:29.661Z,-3.9
2022-12-18T11:12:30.839Z,-3.8
2022-12-18T11:13:32.999Z,-3.6
2022-12-18T11:14:34.914Z,-3.6
2022-12-18T11:15:37.036Z,-3.4
2022-12-18T11:16:38.818Z,-3.4
2022-12-18T11:17:41.095Z,-3.3
2022-12-18T11:18:43.249Z,-3.4
2022-12-18T11:19:44.858Z,-3.5
2022-12-18T11:20:47.178Z,-3.6
2022-12-18T11:21:49.064Z,-3.7
2022-12-18T11:22:51.381Z,-3.8
2022-12-18T11:23:53.899Z,-3.7
2022-12-18T11:25:22.763Z,-3.7
2022-12-18T11:25:57.856Z,-3.7
2022-12-18T11:27:00.087Z,-3.5
2022-12-18T11:28:01.887Z,-3.6
2022-12-18T11:29:03.842Z,-3.5
2022-12-18T11:30:05.859Z,-3.5
2022-12-18T11:31:08.081Z,-3.6
2022-12-18T11:32:10.221Z,-3.4
2022-12-18T11:33:12.579Z,-3.3
2022-12-18T11:34:30.572Z,-3.4
2022-12-18T11:35:16.820Z,-3.4
2022-12-18T11:36:18.888Z,-3.6
2022-12-18T11:37:20.802Z,-3.6
2022-12-18T11:38:22.967Z,-3.8
2022-12-18T11:39:24.815Z,-3.8
2022-12-18T11:40:25.836Z,-3.9
2022-12-18T11:41:28.916Z,-4.2
2022-12-18T11:42:30.847Z,-4.4
2022-12-18T11:43:32.808Z,-4.4
2022-12-18T11:44:34.855Z,-4.5
2022-12-18T11:45:37.982Z,-4.5
2022-12-18T11:46:39.840Z,-4.4
2022-12-18T11:47:41.883Z,-4.6
2022-12-18T11:48:49.735Z,-4.4
2022-12-18T11:49:45.938Z,-4.4
2022-12-18T11:50:47.895Z,-4.3
2022-12-18T11:51:49.855Z,-4.4
2022-12-18T11:52:56.658Z,-4.4
2022-12-18T11:53:55.057Z,-4.5
2022-12-18T11:54:57.636Z,-4.6
2022-12-18T11:55:58.799Z,-4.8
2022-12-18T11:57:00.976Z,-4.8
2022-12-18T11:58:03.141Z,-4.7
2022-12-18T11:59:04.875Z,-4.6
2022-12-18T12:00:07.039Z,-4.3
2022-12-18T12:01:08.842Z,-4.2
2022-12-18T12:02:11.352Z,-4.2
2022-12-18T12:03:12.916Z,-4.5
2022-12-18T12:04:14.944Z,-4.5
2022-12-18T12:05:16.975Z,-4.7
2022-12-18T12:06:19.856Z,-4.8
2022-12-18T12:07:22.015Z,-4.8
2022-12-18T12:08:23.793Z,-4.9
2022-12-18T12:09:26.282Z,-5
2022-12-18T12:10:28.235Z,-4.9
2022-12-18T12:11:29.990Z,-4.7
2022-12-18T12:12:31.854Z,-4.6
2022-12-18T12:13:33.886Z,-4.6
2022-12-18T12:14:35.941Z,-4.5
2022-12-18T12:15:37.815Z,-4.5
2022-12-18T12:16:39.929Z,-4.5
2022-12-18T12:17:41.900Z,-4.3
2022-12-18T12:18:43.882Z,-4.3
2022-12-18T12:19:45.957Z,-4.3
2022-12-18T12:20:48.002Z,-4.3
2022-12-18T12:21:50.056Z,-4.2
2022-12-18T12:22:51.903Z,-4
2022-12-18T12:23:53.816Z,-3.8
2022-12-18T12:24:56.794Z,-3.8
2022-12-18T12:25:59.922Z,-3.7
2022-12-18T12:27:01.916Z,-3.7
2022-12-18T12:28:03.860Z,-4
2022-12-18T12:29:05.818Z,-4.3
2022-12-18T12:30:08.769Z,-4.4
2022-12-18T12:31:08.877Z,-4.5
2022-12-18T12:32:09.918Z,-4.5
2022-12-18T12:33:11.907Z,-4.6
2022-12-18T12:34:13.895Z,-4.5
2022-12-18T12:35:16.525Z,-4.3
2022-12-18T12:36:19.137Z,-4.2
2022-12-18T12:37:21.264Z,-4.3
2022-12-18T12:38:23.055Z,-4.2
2022-12-18T12:39:24.855Z,-4.2
2022-12-18T12:40:51.065Z,-4
2022-12-18T12:41:28.917Z,-4
2022-12-18T12:42:30.055Z,-4.1
2022-12-18T12:43:31.967Z,-4.3
2022-12-18T12:44:33.858Z,-4.1
2022-12-18T12:45:36.763Z,-4.2
2022-12-18T12:46:39.236Z,-4.2
2022-12-18T12:47:40.843Z,-4.2
2022-12-18T12:48:42.369Z,-4.1
2022-12-18T12:49:43.857Z,-4
2022-12-18T12:50:46.175Z,-4.1
2022-12-18T12:51:48.102Z,-4
2022-12-18T12:52:50.376Z,-4.1
2022-12-18T12:53:51.896Z,-4.1
2022-12-18T12:54:54.145Z,-4
2022-12-18T12:55:55.842Z,-3.9
2022-12-18T12:56:57.936Z,-4.1
2022-12-18T12:58:00.015Z,-4
2022-12-18T12:59:02.176Z,-4.2
2022-12-18T13:00:04.854Z,-4.2
2022-12-18T13:01:07.319Z,-4.2
2022-12-18T13:02:08.954Z,-4.2
2022-12-18T13:03:11.658Z,-4.1
2022-12-18T13:04:13.513Z,-4.1
2022-12-18T13:05:16.935Z,-4
2022-12-18T13:06:19.169Z,-3.9
2022-12-18T13:07:21.072Z,-3.8
2022-12-18T13:08:22.860Z,-3.7
2022-12-18T13:09:25.019Z,-3.5
2022-12-18T13:10:27.191Z,-3.5
2022-12-18T13:11:29.139Z,-3.3
2022-12-18T13:12:33.277Z,-3.2
2022-12-18T13:13:33.001Z,-3.3
2022-12-18T13:14:34.932Z,-3.4
2022-12-18T13:15:38.318Z,-3.7
2022-12-18T13:16:38.956Z,-3.7
2022-12-18T13:17:41.261Z,-3.7
2022-12-18T13:18:43.654Z,-4.2
2022-12-18T13:19:45.774Z,-4.4
2022-12-18T13:20:52.619Z,-4.5
2022-12-18T13:21:49.875Z,-4.8
2022-12-18T13:22:52.064Z,-4.8
2022-12-18T13:23:54.396Z,-4.8
2022-12-18T13:24:55.875Z,-4.8
2022-12-18T13:25:57.904Z,-4.8
2022-12-18T13:27:00.339Z,-4.7
2022-12-18T13:28:02.950Z,-4.8
2022-12-18T13:29:04.925Z,-5
2022-12-18T13:30:07.021Z,-5.1
2022-12-18T13:31:08.915Z,-5.1
2022-12-18T13:32:12.902Z,-5.1
2022-12-18T13:33:13.018Z,-5
2022-12-18T13:34:30.806Z,-4.9
2022-12-18T13:35:16.969Z,-4.9
2022-12-18T13:36:18.858Z,-4.7
2022-12-18T13:37:21.002Z,-4.6
2022-12-18T13:38:23.455Z,-4.5
2022-12-18T13:39:30.176Z,-4.4
2022-12-18T13:40:27.037Z,-4.4
2022-12-18T13:41:29.585Z,-4.5
2022-12-18T13:42:31.305Z,-4.6
2022-12-18T13:43:32.976Z,-4.5
2022-12-18T13:44:40.186Z,-4.5
2022-12-18T13:45:36.975Z,-4.5
2022-12-18T13:46:38.863Z,-4.4
2022-12-18T13:47:40.935Z,-4.3
2022-12-18T13:48:43.600Z,-4.2
2022-12-18T13:49:45.878Z,-4.1
2022-12-18T13:50:48.319Z,-4
2022-12-18T13:51:49.946Z,-3.9
2022-12-18T13:52:52.375Z,-3.9
2022-12-18T13:53:55.505Z,-3.8
2022-12-18T13:54:57.067Z,-3.8